createdAt,value
2018-09-30T00:00:56.302Z,11.64
2018-09-30T00:01:56.465Z,11.65
2018-09-30T00:02:56.224Z,11.63
2018-09-30T00:03:56.398Z,11.59
2018-09-30T00:04:56.329Z,11.56
2018-09-30T00:05:56.336Z,11.55
2018-09-30T00:06:56.214Z,11.55
2018-09-30T00:07:56.292Z,11.51
2018-09-30T00:08:56.267Z,11.49
2018-09-30T00:09:56.308Z,11.45
2018-09-30T00:10:56.303Z,11.46
2018-09-30T00:11:56.737Z,11.42
2018-09-30T00:12:56.194Z,11.43
2018-09-30T00:13:56.259Z,11.42
2018-09-30T00:14:56.227Z,11.39
2018-09-30T00:16:56.309Z,11.37
2018-09-30T00:17:56.287Z,11.37
2018-09-30T00:18:56.221Z,11.33
2018-09-30T00:19:56.235Z,11.32
2018-09-30T00:20:56.310Z,11.28
2018-09-30T00:21:56.339Z,11.3
2018-09-30T00:22:56.218Z,11.3
2018-09-30T00:23:56.284Z,11.32
2018-09-30T00:24:56.571Z,11.31
2018-09-30T00:25:56.294Z,11.3
2018-09-30T00:26:56.276Z,11.29
2018-09-30T00:27:56.213Z,11.29
2018-09-30T00:28:56.265Z,11.3
2018-09-30T00:29:56.570Z,11.27
2018-09-30T00:30:56.355Z,11.27
2018-09-30T00:31:56.197Z,11.29
2018-09-30T00:32:56.218Z,11.24
2018-09-30T00:33:56.290Z,11.23
2018-09-30T00:34:56.200Z,11.21
2018-09-30T00:35:56.251Z,11.23
2018-09-30T00:36:56.181Z,11.2
2018-09-30T00:37:56.527Z,11.19
2018-09-30T00:38:56.341Z,11.17
2018-09-30T00:39:56.304Z,11.18
2018-09-30T00:40:56.275Z,11.2
2018-09-30T00:41:56.160Z,11.2
2018-09-30T00:42:56.533Z,11.23
2018-09-30T00:43:56.177Z,11.21
2018-09-30T00:44:56.208Z,11.24
2018-09-30T00:45:56.286Z,11.2
2018-09-30T00:46:56.202Z,11.2
2018-09-30T00:47:56.359Z,11.2
2018-09-30T00:48:56.225Z,11.19
2018-09-30T00:49:56.574Z,11.18
2018-09-30T00:50:56.548Z,11.15
2018-09-30T00:51:56.231Z,11.15
2018-09-30T00:52:56.185Z,11.15
2018-09-30T00:53:56.269Z,11.13
2018-09-30T00:54:56.508Z,11.11
2018-09-30T00:55:56.229Z,11.12
2018-09-30T00:56:56.231Z,11.12
2018-09-30T00:57:56.367Z,11.12
2018-09-30T00:58:56.178Z,11.11
2018-09-30T00:59:56.151Z,11.08
2018-09-30T01:00:56.190Z,11.07
2018-09-30T01:01:56.232Z,11.05
2018-09-30T01:02:56.181Z,11.04
2018-09-30T01:03:56.210Z,10.99
2018-09-30T01:04:56.136Z,11
2018-09-30T01:05:56.161Z,11
2018-09-30T01:06:56.144Z,11
2018-09-30T01:07:56.167Z,11
2018-09-30T01:08:56.128Z,11
2018-09-30T01:09:56.204Z,10.91
2018-09-30T01:10:56.189Z,10.91
2018-09-30T01:11:56.175Z,10.83
2018-09-30T01:12:56.130Z,10.82
2018-09-30T01:13:56.158Z,10.87
2018-09-30T01:14:56.123Z,10.87
2018-09-30T01:15:56.148Z,10.87
2018-09-30T01:16:56.191Z,10.87
2018-09-30T01:17:56.143Z,10.87
2018-09-30T01:18:56.172Z,10.88
2018-09-30T01:19:56.130Z,10.88
2018-09-30T01:20:57.631Z,10.88
2018-09-30T01:21:56.133Z,10.88
2018-09-30T01:22:56.106Z,10.86
2018-09-30T01:23:56.161Z,10.85
2018-09-30T01:24:56.193Z,10.83
2018-09-30T01:25:56.126Z,10.82
2018-09-30T01:26:56.157Z,10.82
2018-09-30T01:27:56.371Z,10.82
2018-09-30T01:28:56.148Z,10.82
2018-09-30T01:29:56.154Z,10.81
2018-09-30T01:30:56.357Z,10.81
2018-09-30T01:31:56.265Z,10.78
2018-09-30T01:32:56.120Z,10.78
2018-09-30T01:33:56.129Z,10.77
2018-09-30T01:34:56.153Z,10.76
2018-09-30T01:35:56.153Z,10.76
2018-09-30T01:36:56.189Z,10.76
2018-09-30T01:37:56.248Z,10.74
2018-09-30T01:38:56.110Z,10.72
2018-09-30T01:39:56.203Z,10.7
2018-09-30T01:40:56.378Z,10.69
2018-09-30T01:41:56.278Z,10.63
2018-09-30T01:42:56.184Z,10.62
2018-09-30T01:43:56.138Z,10.59
2018-09-30T01:44:56.244Z,10.62
2018-09-30T01:45:56.112Z,10.6
2018-09-30T01:46:56.350Z,10.57
2018-09-30T01:47:56.082Z,10.52
2018-09-30T01:48:56.226Z,10.54
2018-09-30T01:49:56.168Z,10.52
2018-09-30T01:50:56.124Z,10.51
2018-09-30T01:51:56.214Z,10.51
2018-09-30T01:52:56.100Z,10.5
2018-09-30T01:53:56.157Z,10.49
2018-09-30T01:54:56.626Z,10.45
2018-09-30T01:55:56.276Z,10.47
2018-09-30T01:56:56.330Z,10.43
2018-09-30T01:57:56.152Z,10.45
2018-09-30T01:58:56.290Z,10.47
2018-09-30T01:59:56.201Z,10.49
2018-09-30T02:00:56.179Z,10.51
2018-09-30T02:01:56.255Z,10.45
2018-09-30T02:02:56.212Z,10.44
2018-09-30T02:03:56.217Z,10.45
2018-09-30T02:04:56.201Z,10.45
2018-09-30T02:05:56.263Z,10.46
2018-09-30T02:06:56.149Z,10.49
2018-09-30T02:07:56.207Z,10.5
2018-09-30T02:08:56.089Z,10.47
2018-09-30T02:09:56.225Z,10.5
2018-09-30T02:10:56.072Z,10.47
2018-09-30T02:11:56.136Z,10.5
2018-09-30T02:12:56.223Z,10.48
2018-09-30T02:13:56.135Z,10.5
2018-09-30T02:14:56.152Z,10.51
2018-09-30T02:15:56.349Z,10.52
2018-09-30T02:16:56.045Z,10.52
2018-09-30T02:17:56.087Z,10.45
2018-09-30T02:18:56.129Z,10.45
2018-09-30T02:19:56.167Z,10.43
2018-09-30T02:20:56.300Z,10.44
2018-09-30T02:21:56.147Z,10.44
2018-09-30T02:22:56.046Z,10.47
2018-09-30T02:23:56.124Z,10.46
2018-09-30T02:24:56.118Z,10.46
2018-09-30T02:25:56.079Z,10.47
2018-09-30T02:26:56.187Z,10.43
2018-09-30T02:27:56.148Z,10.44
2018-09-30T02:28:56.200Z,10.44
2018-09-30T02:29:56.038Z,10.45
2018-09-30T02:30:56.071Z,10.45
2018-09-30T02:31:56.326Z,10.46
2018-09-30T02:32:56.026Z,10.45
2018-09-30T02:33:56.166Z,10.45
2018-09-30T02:34:56.016Z,10.45
2018-09-30T02:35:56.109Z,10.45
2018-09-30T02:36:56.117Z,10.46
2018-09-30T02:37:56.331Z,10.45
2018-09-30T02:38:56.140Z,10.44
2018-09-30T02:39:56.032Z,10.4
2018-09-30T02:40:56.046Z,10.39
2018-09-30T02:41:55.986Z,10.32
2018-09-30T02:42:56.128Z,10.32
2018-09-30T02:43:56.060Z,10.31
2018-09-30T02:44:56.274Z,10.26
2018-09-30T02:45:56.041Z,10.26
2018-09-30T02:46:56.006Z,10.24
2018-09-30T02:47:56.059Z,10.25
2018-09-30T02:48:56.162Z,10.2
2018-09-30T02:49:56.144Z,10.21
2018-09-30T02:50:56.389Z,10.19
2018-09-30T02:51:56.483Z,10.2
2018-09-30T02:52:56.262Z,10.19
2018-09-30T02:53:56.006Z,10.19
2018-09-30T02:54:56.087Z,10.2
2018-09-30T02:55:56.224Z,10.21
2018-09-30T02:56:56.009Z,10.23
2018-09-30T02:57:56.159Z,10.21
2018-09-30T02:58:55.996Z,10.21
2018-09-30T02:59:56.111Z,10.19
2018-09-30T03:00:56.309Z,10.16
2018-09-30T03:01:56.215Z,10.13
2018-09-30T03:02:56.150Z,10.17
2018-09-30T03:03:56.026Z,10.19
2018-09-30T03:04:56.185Z,10.19
2018-09-30T03:05:56.312Z,10.16
2018-09-30T03:06:56.633Z,10.18
2018-09-30T03:07:56.318Z,10.19
2018-09-30T03:08:56.328Z,10.2
2018-09-30T03:09:56.003Z,10.22
2018-09-30T03:10:56.117Z,10.23
2018-09-30T03:11:55.986Z,10.24
2018-09-30T03:12:56.075Z,10.26
2018-09-30T03:13:55.962Z,10.24
2018-09-30T03:14:56.167Z,10.24
2018-09-30T03:15:55.967Z,10.27
2018-09-30T03:16:56.188Z,10.25
2018-09-30T03:17:55.953Z,10.25
2018-09-30T03:18:56.040Z,10.25
2018-09-30T03:19:55.986Z,10.25
2018-09-30T03:20:56.053Z,10.24
2018-09-30T03:21:56.088Z,10.25
2018-09-30T03:22:56.013Z,10.23
2018-09-30T03:23:55.990Z,10.24
2018-09-30T03:24:56.225Z,10.24
2018-09-30T03:25:56.068Z,10.22
2018-09-30T03:26:56.547Z,10.22
2018-09-30T03:27:56.257Z,10.21
2018-09-30T03:28:56.778Z,10.24
2018-09-30T03:29:56.116Z,10.21
2018-09-30T03:30:56.069Z,10.2
2018-09-30T03:31:56.386Z,10.2
2018-09-30T03:32:56.043Z,10.17
2018-09-30T03:33:55.930Z,10.19
2018-09-30T03:34:56.088Z,10.14
2018-09-30T03:35:55.976Z,10.14
2018-09-30T03:36:55.963Z,10.12
2018-09-30T03:37:55.960Z,10.1
2018-09-30T03:38:55.924Z,10.12
2018-09-30T03:39:56.178Z,10.09
2018-09-30T03:40:56.081Z,10.09
2018-09-30T03:41:56.184Z,10.09
2018-09-30T03:42:56.272Z,10.04
2018-09-30T03:43:55.938Z,10.07
2018-09-30T03:44:55.927Z,10.05
2018-09-30T03:45:56.146Z,10.02
2018-09-30T03:46:56.298Z,10.03
2018-09-30T03:47:55.955Z,10.04
2018-09-30T03:48:56.098Z,10.04
2018-09-30T03:49:56.004Z,10.02
2018-09-30T03:50:55.963Z,9.99
2018-09-30T03:51:55.985Z,10.01
2018-09-30T03:52:55.924Z,10.03
2018-09-30T03:53:55.924Z,10.01
2018-09-30T03:54:55.924Z,10.01
2018-09-30T03:55:55.904Z,10.01
2018-09-30T03:56:55.899Z,10
2018-09-30T03:57:55.988Z,9.97
2018-09-30T03:58:55.955Z,10
2018-09-30T03:59:55.976Z,9.98
2018-09-30T04:00:55.929Z,10
2018-09-30T04:01:55.936Z,9.98
2018-09-30T04:02:55.973Z,9.97
2018-09-30T04:03:55.914Z,9.97
2018-09-30T04:04:55.913Z,9.98
2018-09-30T04:05:55.903Z,9.96
2018-09-30T04:06:55.945Z,9.98
2018-09-30T04:07:56.210Z,9.96
2018-09-30T04:08:56.210Z,9.97
2018-09-30T04:09:56.325Z,9.96
2018-09-30T04:10:55.935Z,9.97
2018-09-30T04:11:55.896Z,9.95
2018-09-30T04:12:55.879Z,9.96
2018-09-30T04:13:55.990Z,9.93
2018-09-30T04:14:55.991Z,9.95
2018-09-30T04:15:56.071Z,9.93
2018-09-30T04:16:56.970Z,9.93
2018-09-30T04:17:55.899Z,9.91
2018-09-30T04:18:55.868Z,9.94
2018-09-30T04:19:56.215Z,9.94
2018-09-30T04:20:56.272Z,9.93
2018-09-30T04:21:55.895Z,9.94
2018-09-30T04:22:55.873Z,9.91
2018-09-30T04:23:55.881Z,9.93
2018-09-30T04:24:55.902Z,9.91
2018-09-30T04:25:55.872Z,9.94
2018-09-30T04:26:55.869Z,9.95
2018-09-30T04:27:55.858Z,9.94
2018-09-30T04:28:55.871Z,9.89
2018-09-30T04:29:56.238Z,9.89
2018-09-30T04:30:55.866Z,9.88
2018-09-30T04:31:55.973Z,9.88
2018-09-30T04:32:55.899Z,9.87
2018-09-30T04:33:55.857Z,9.85
2018-09-30T04:34:56.121Z,9.85
2018-09-30T04:35:55.909Z,9.85
2018-09-30T04:36:56.005Z,9.85
2018-09-30T04:37:55.988Z,9.88
2018-09-30T04:38:55.861Z,9.85
2018-09-30T04:39:55.870Z,9.88
2018-09-30T04:40:55.938Z,9.87
2018-09-30T04:41:55.993Z,9.86
2018-09-30T04:42:55.827Z,9.87
2018-09-30T04:43:55.912Z,9.88
2018-09-30T04:44:56.138Z,9.85
2018-09-30T04:45:55.868Z,9.8
2018-09-30T04:46:55.864Z,9.7
2018-09-30T04:47:55.956Z,9.71
2018-09-30T04:48:55.851Z,9.75
2018-09-30T04:49:56.286Z,9.74
2018-09-30T04:50:55.843Z,9.76
2018-09-30T04:51:56.156Z,9.73
2018-09-30T04:52:56.179Z,9.72
2018-09-30T04:53:55.890Z,9.74
2018-09-30T04:54:55.877Z,9.72
2018-09-30T04:55:55.912Z,9.75
2018-09-30T04:56:55.972Z,9.75
2018-09-30T04:57:56.185Z,9.76
2018-09-30T04:58:55.891Z,9.76
2018-09-30T04:59:55.923Z,9.76
2018-09-30T05:00:55.864Z,9.77
2018-09-30T05:01:55.927Z,9.78
2018-09-30T05:02:55.842Z,9.78
2018-09-30T05:03:55.896Z,9.76
2018-09-30T05:04:55.888Z,9.74
2018-09-30T05:05:56.194Z,9.71
2018-09-30T05:06:55.789Z,9.73
2018-09-30T05:07:55.880Z,9.75
2018-09-30T05:08:55.817Z,9.76
2018-09-30T05:09:56.123Z,9.76
2018-09-30T05:10:57.142Z,9.8
2018-09-30T05:11:55.957Z,9.77
2018-09-30T05:12:55.847Z,9.78
2018-09-30T05:13:55.803Z,9.77
2018-09-30T05:14:55.797Z,9.78
2018-09-30T05:15:56.158Z,9.78
2018-09-30T05:16:55.784Z,9.77
2018-09-30T05:17:55.792Z,9.78
2018-09-30T05:18:55.822Z,9.78
2018-09-30T05:19:55.777Z,9.77
2018-09-30T05:20:55.854Z,9.76
2018-09-30T05:21:55.844Z,9.76
2018-09-30T05:22:55.795Z,9.76
2018-09-30T05:23:56.042Z,9.75
2018-09-30T05:24:55.812Z,9.77
2018-09-30T05:25:55.778Z,9.74
2018-09-30T05:26:55.824Z,9.76
2018-09-30T05:27:55.789Z,9.76
2018-09-30T05:28:55.799Z,9.75
2018-09-30T05:29:55.777Z,9.73
2018-09-30T05:30:55.745Z,9.71
2018-09-30T05:31:55.786Z,9.68
2018-09-30T05:32:55.757Z,9.57
2018-09-30T05:33:55.825Z,9.57
2018-09-30T05:34:55.870Z,9.51
2018-09-30T05:35:55.907Z,9.42
2018-09-30T05:36:55.754Z,9.29
2018-09-30T05:37:55.752Z,9.33
2018-09-30T05:38:55.761Z,9.34
2018-09-30T05:39:55.760Z,9.31
2018-09-30T05:40:55.846Z,9.32
2018-09-30T05:41:56.256Z,9.29
2018-09-30T05:42:55.928Z,9.28
2018-09-30T05:43:56.140Z,9.3
2018-09-30T05:44:55.860Z,9.29
2018-09-30T05:45:55.903Z,9.28
2018-09-30T05:46:55.862Z,9.29
2018-09-30T05:47:56.408Z,9.28
2018-09-30T05:48:56.171Z,9.25
2018-09-30T05:49:55.881Z,9.24
2018-09-30T05:50:56.099Z,9.12
2018-09-30T05:51:55.842Z,9.14
2018-09-30T05:52:55.859Z,9.13
2018-09-30T05:53:55.744Z,9.1
2018-09-30T05:54:55.774Z,9.07
2018-09-30T05:55:56.074Z,9.05
2018-09-30T05:56:56.081Z,9.06
2018-09-30T05:57:56.611Z,9.05
2018-09-30T05:58:55.759Z,9.05
2018-09-30T05:59:55.733Z,9.05
2018-09-30T06:00:55.770Z,9.05
2018-09-30T06:01:55.863Z,9
2018-09-30T06:02:55.737Z,9.04
2018-09-30T06:03:56.353Z,9.06
2018-09-30T06:04:55.748Z,9.06
2018-09-30T06:05:55.746Z,9.05
2018-09-30T06:06:56.100Z,9.06
2018-09-30T06:07:55.954Z,8.97
2018-09-30T06:08:56.074Z,8.93
2018-09-30T06:09:55.737Z,8.96
2018-09-30T06:10:55.923Z,8.98
2018-09-30T06:11:55.727Z,8.98
2018-09-30T06:12:55.796Z,9.02
2018-09-30T06:13:57.357Z,9.03
2018-09-30T06:14:55.730Z,9.07
2018-09-30T06:15:56.729Z,9.05
2018-09-30T06:16:55.722Z,9.07
2018-09-30T06:17:55.894Z,9.1
2018-09-30T06:18:55.982Z,9.12
2018-09-30T06:19:55.987Z,9.13
2018-09-30T06:20:55.825Z,9.16
2018-09-30T06:21:55.819Z,9.15
2018-09-30T06:22:56.117Z,9.16
2018-09-30T06:23:56.232Z,9.18
2018-09-30T06:24:55.781Z,9.18
2018-09-30T06:25:55.714Z,9.21
2018-09-30T06:26:55.729Z,9.13
2018-09-30T06:27:55.742Z,9.08
2018-09-30T06:28:55.729Z,9.04
2018-09-30T06:29:55.764Z,9.07
2018-09-30T06:30:55.815Z,9.06
2018-09-30T06:31:56.127Z,9
2018-09-30T06:32:55.726Z,9.02
2018-09-30T06:33:55.801Z,8.83
2018-09-30T06:34:55.755Z,8.87
2018-09-30T06:35:55.768Z,8.89
2018-09-30T06:36:55.741Z,8.93
2018-09-30T06:37:56.070Z,8.96
2018-09-30T06:38:55.685Z,8.94
2018-09-30T06:39:55.693Z,8.97
2018-09-30T06:40:55.662Z,8.99
2018-09-30T06:41:55.666Z,9.02
2018-09-30T06:42:55.691Z,9.05
2018-09-30T06:43:55.675Z,9.06
2018-09-30T06:44:56.041Z,9.08
2018-09-30T06:45:55.674Z,9.1
2018-09-30T06:46:55.632Z,9.13
2018-09-30T06:47:55.661Z,9.16
2018-09-30T06:48:55.730Z,9.17
2018-09-30T06:49:55.688Z,9.18
2018-09-30T06:50:56.476Z,9.22
2018-09-30T06:51:55.639Z,9.27
2018-09-30T06:52:55.646Z,9.31
2018-09-30T06:53:55.658Z,9.35
2018-09-30T06:54:55.636Z,9.39
2018-09-30T06:55:55.732Z,9.42
2018-09-30T06:56:55.672Z,9.48
2018-09-30T06:57:55.712Z,9.52
2018-09-30T06:58:55.665Z,9.59
2018-09-30T06:59:56.027Z,9.62
2018-09-30T07:00:55.894Z,9.65
2018-09-30T07:01:55.701Z,9.68
2018-09-30T07:02:55.679Z,9.7
2018-09-30T07:03:55.975Z,9.73
2018-09-30T07:04:57.074Z,9.75
2018-09-30T07:05:55.612Z,9.77
2018-09-30T07:06:55.732Z,9.77
2018-09-30T07:07:55.628Z,9.81
2018-09-30T07:08:55.638Z,9.82
2018-09-30T07:09:55.633Z,9.84
2018-09-30T07:10:57.159Z,9.87
2018-09-30T07:11:55.833Z,9.88
2018-09-30T07:12:55.626Z,9.91
2018-09-30T07:13:56.018Z,9.95
2018-09-30T07:14:55.615Z,9.98
2018-09-30T07:15:55.634Z,10
2018-09-30T07:16:56.496Z,10.02
2018-09-30T07:17:55.760Z,10.06
2018-09-30T07:18:55.734Z,10.11
2018-09-30T07:19:55.713Z,10.06
2018-09-30T07:20:55.608Z,10.07
2018-09-30T07:21:55.696Z,10.1
2018-09-30T07:22:56.022Z,10.17
2018-09-30T07:23:55.999Z,10.19
2018-09-30T07:24:55.667Z,10.25
2018-09-30T07:25:55.772Z,10.26
2018-09-30T07:26:55.580Z,10.31
2018-09-30T07:27:55.761Z,10.37
2018-09-30T07:28:55.740Z,10.4
2018-09-30T07:29:55.611Z,10.44
2018-09-30T07:30:55.800Z,10.46
2018-09-30T07:31:55.653Z,10.5
2018-09-30T07:32:55.643Z,10.55
2018-09-30T07:33:56.016Z,10.56
2018-09-30T07:34:56.034Z,10.57
2018-09-30T07:35:55.580Z,10.62
2018-09-30T07:36:55.564Z,10.64
2018-09-30T07:37:55.607Z,10.66
2018-09-30T07:38:55.580Z,10.67
2018-09-30T07:39:55.837Z,10.7
2018-09-30T07:40:55.636Z,10.73
2018-09-30T07:41:55.663Z,10.78
2018-09-30T07:42:55.748Z,10.79
2018-09-30T07:43:55.680Z,10.79
2018-09-30T07:44:55.616Z,10.8
2018-09-30T07:45:55.571Z,10.84
2018-09-30T07:46:55.892Z,10.88
2018-09-30T07:47:55.650Z,10.86
2018-09-30T07:48:55.601Z,10.86
2018-09-30T07:49:55.589Z,10.86
2018-09-30T07:50:55.569Z,10.9
2018-09-30T07:51:55.553Z,10.91
2018-09-30T07:52:55.579Z,10.9
2018-09-30T07:53:55.634Z,10.93
2018-09-30T07:54:55.635Z,10.98
2018-09-30T07:55:55.712Z,11.01
2018-09-30T07:56:55.640Z,11.05
2018-09-30T07:57:55.739Z,11.07
2018-09-30T07:58:55.675Z,11.13
2018-09-30T07:59:55.768Z,11.18
2018-09-30T08:00:55.680Z,11.19
2018-09-30T08:01:55.528Z,11.22
2018-09-30T08:02:55.535Z,11.24
2018-09-30T08:03:55.528Z,11.29
2018-09-30T08:04:55.529Z,11.3
2018-09-30T08:05:55.540Z,11.31
2018-09-30T08:06:55.607Z,11.32
2018-09-30T08:07:55.539Z,11.35
2018-09-30T08:08:55.509Z,11.38
2018-09-30T08:09:55.608Z,11.38
2018-09-30T08:10:55.628Z,11.42
2018-09-30T08:11:55.559Z,11.42
2018-09-30T08:12:55.561Z,11.42
2018-09-30T08:13:55.862Z,11.44
2018-09-30T08:14:55.563Z,11.5
2018-09-30T08:15:55.539Z,11.53
2018-09-30T08:16:56.169Z,11.56
2018-09-30T08:17:55.722Z,11.62
2018-09-30T08:18:55.569Z,11.66
2018-09-30T08:19:55.612Z,11.67
2018-09-30T08:20:55.561Z,11.69
2018-09-30T08:21:55.797Z,11.77
2018-09-30T08:22:55.550Z,11.82
2018-09-30T08:23:56.171Z,11.89
2018-09-30T08:24:55.632Z,11.91
2018-09-30T08:25:55.549Z,11.95
2018-09-30T08:26:55.890Z,11.98
2018-09-30T08:27:55.562Z,12.05
2018-09-30T08:28:55.868Z,12.08
2018-09-30T08:29:55.679Z,12.08
2018-09-30T08:30:55.791Z,12.09
2018-09-30T08:31:55.561Z,12.08
2018-09-30T08:32:55.672Z,12.11
2018-09-30T08:33:55.527Z,12.12
2018-09-30T08:34:55.509Z,12.11
2018-09-30T08:35:55.682Z,12.14
2018-09-30T08:36:55.524Z,12.17
2018-09-30T08:37:55.577Z,12.22
2018-09-30T08:38:55.758Z,12.25
2018-09-30T08:39:56.305Z,12.27
2018-09-30T08:40:55.678Z,12.28
2018-09-30T08:41:55.543Z,12.3
2018-09-30T08:42:55.536Z,12.35
2018-09-30T08:43:57.090Z,12.33
2018-09-30T08:44:55.544Z,12.36
2018-09-30T08:45:56.284Z,12.4
2018-09-30T08:46:55.527Z,12.42
2018-09-30T08:47:55.536Z,12.43
2018-09-30T08:48:55.541Z,12.44
2018-09-30T08:49:55.586Z,12.48
2018-09-30T08:50:55.544Z,12.5
2018-09-30T08:51:55.631Z,12.55
2018-09-30T08:52:56.145Z,12.53
2018-09-30T08:53:56.324Z,12.56
2018-09-30T08:54:55.444Z,12.59
2018-09-30T08:55:56.186Z,12.6
2018-09-30T08:56:55.546Z,12.65
2018-09-30T08:57:55.667Z,12.61
2018-09-30T08:58:55.571Z,12.67
2018-09-30T08:59:55.443Z,12.67
2018-09-30T09:00:55.596Z,12.7
2018-09-30T09:01:55.500Z,12.74
2018-09-30T09:02:55.983Z,12.78
2018-09-30T09:03:55.600Z,12.79
2018-09-30T09:04:55.689Z,12.82
2018-09-30T09:05:55.500Z,12.87
2018-09-30T09:06:55.495Z,12.89
2018-09-30T09:07:55.720Z,12.89
2018-09-30T09:08:55.539Z,12.86
2018-09-30T09:09:56.393Z,12.86
2018-09-30T09:10:55.510Z,12.89
2018-09-30T09:11:55.746Z,12.94
2018-09-30T09:12:55.565Z,12.99
2018-09-30T09:13:55.569Z,13.04
2018-09-30T09:14:55.575Z,13.1
2018-09-30T09:15:55.460Z,13.15
2018-09-30T09:16:55.568Z,13.19
2018-09-30T09:17:55.439Z,13.25
2018-09-30T09:18:55.795Z,13.28
2018-09-30T09:19:56.258Z,13.29
2018-09-30T09:20:55.546Z,13.36
2018-09-30T09:21:55.442Z,13.43
2018-09-30T09:22:56.038Z,13.47
2018-09-30T09:23:55.430Z,13.48
2018-09-30T09:24:55.410Z,13.55
2018-09-30T09:25:55.416Z,13.57
2018-09-30T09:26:55.728Z,13.59
2018-09-30T09:27:55.803Z,13.6
2018-09-30T09:28:55.537Z,13.65
2018-09-30T09:29:55.413Z,13.68
2018-09-30T09:30:55.420Z,13.72
2018-09-30T09:31:55.470Z,13.72
2018-09-30T09:32:57.417Z,13.73
2018-09-30T09:33:55.420Z,13.74
2018-09-30T09:34:56.080Z,13.8
2018-09-30T09:35:55.438Z,13.82
2018-09-30T09:36:55.390Z,13.84
2018-09-30T09:37:56.717Z,13.83
2018-09-30T09:38:55.421Z,13.87
2018-09-30T09:39:55.625Z,13.92
2018-09-30T09:40:55.765Z,13.98
2018-09-30T09:41:55.633Z,14.03
2018-09-30T09:42:55.468Z,14.03
2018-09-30T09:43:55.482Z,14.05
2018-09-30T09:44:55.418Z,14.07
2018-09-30T09:45:56.365Z,14.1
2018-09-30T09:46:55.792Z,14.17
2018-09-30T09:47:55.371Z,14.24
2018-09-30T09:48:55.450Z,14.27
2018-09-30T09:49:55.493Z,14.3
2018-09-30T09:50:55.376Z,14.36
2018-09-30T09:51:55.490Z,14.35
2018-09-30T09:52:55.749Z,14.37
2018-09-30T09:53:55.648Z,14.39
2018-09-30T09:54:55.420Z,14.34
2018-09-30T09:55:55.475Z,14.21
2018-09-30T09:56:55.442Z,14.26
2018-09-30T09:57:58.144Z,14.29
2018-09-30T09:58:56.381Z,14.35
2018-09-30T09:59:55.422Z,14.38
2018-09-30T10:00:55.761Z,14.42
2018-09-30T10:01:55.374Z,14.43
2018-09-30T10:02:55.392Z,14.49
2018-09-30T10:03:55.626Z,14.51
2018-09-30T10:04:55.587Z,14.53
2018-09-30T10:05:55.368Z,14.48
2018-09-30T10:06:55.818Z,14.45
2018-09-30T10:07:55.601Z,14.47
2018-09-30T10:08:55.483Z,14.46
2018-09-30T10:09:55.399Z,14.53
2018-09-30T10:10:55.404Z,14.6
2018-09-30T10:11:55.885Z,14.63
2018-09-30T10:13:55.803Z,14.64
2018-09-30T10:14:55.526Z,14.62
2018-09-30T10:15:55.322Z,14.63
2018-09-30T10:16:55.671Z,14.57
2018-09-30T10:17:55.480Z,14.58
2018-09-30T10:18:55.528Z,14.59
2018-09-30T10:19:55.384Z,14.68
2018-09-30T10:20:55.546Z,14.71
2018-09-30T10:21:55.571Z,14.79
2018-09-30T10:22:55.378Z,14.85
2018-09-30T10:23:56.720Z,14.91
2018-09-30T10:24:55.408Z,14.99
2018-09-30T10:25:55.429Z,15.02
2018-09-30T10:26:55.445Z,15.12
2018-09-30T10:27:55.651Z,15.14
2018-09-30T10:28:55.499Z,15.23
2018-09-30T10:29:55.555Z,15.3
2018-09-30T10:30:55.575Z,15.29
2018-09-30T10:31:55.386Z,15.33
2018-09-30T10:32:55.795Z,15.38
2018-09-30T10:33:55.377Z,15.4
2018-09-30T10:34:55.514Z,15.43
2018-09-30T10:35:55.512Z,15.43
2018-09-30T10:36:55.374Z,15.44
2018-09-30T10:37:55.521Z,15.47
2018-09-30T10:38:56.725Z,15.55
2018-09-30T10:39:55.393Z,15.58
2018-09-30T10:40:55.375Z,15.58
2018-09-30T10:41:55.319Z,15.61
2018-09-30T10:42:55.502Z,15.63
2018-09-30T10:43:55.386Z,15.64
2018-09-30T10:44:55.360Z,15.66
2018-09-30T10:45:55.433Z,15.71
2018-09-30T10:46:55.406Z,15.77
2018-09-30T10:47:55.298Z,15.79
2018-09-30T10:48:55.318Z,15.84
2018-09-30T10:49:55.291Z,15.82
2018-09-30T10:50:55.288Z,15.87
2018-09-30T10:51:55.607Z,15.9
2018-09-30T10:52:55.307Z,15.94
2018-09-30T10:53:55.342Z,15.99
2018-09-30T10:54:55.390Z,16.04
2018-09-30T10:55:55.277Z,16.01
2018-09-30T10:56:56.012Z,15.97
2018-09-30T10:57:55.279Z,15.91
2018-09-30T10:58:55.286Z,15.86
2018-09-30T10:59:55.360Z,15.78
2018-09-30T11:00:55.297Z,15.74
2018-09-30T11:01:55.297Z,15.72
2018-09-30T11:02:55.314Z,15.75
2018-09-30T11:03:55.286Z,15.76
2018-09-30T11:04:55.263Z,15.64
2018-09-30T11:05:55.288Z,15.65
2018-09-30T11:06:55.359Z,15.66
2018-09-30T11:07:55.364Z,15.67
2018-09-30T11:08:55.340Z,15.7
2018-09-30T11:09:55.849Z,15.72
2018-09-30T11:10:55.569Z,15.76
2018-09-30T11:11:55.369Z,15.76
2018-09-30T11:12:55.402Z,15.76
2018-09-30T11:13:55.305Z,15.79
2018-09-30T11:14:55.438Z,15.78
2018-09-30T11:15:55.849Z,15.87
2018-09-30T11:16:55.445Z,15.95
2018-09-30T11:17:55.291Z,16.01
2018-09-30T11:18:55.355Z,16.08
2018-09-30T11:19:55.293Z,16.11
2018-09-30T11:20:55.371Z,16.12
2018-09-30T11:21:55.999Z,16.15
2018-09-30T11:22:55.429Z,16.19
2018-09-30T11:23:55.404Z,16.24
2018-09-30T11:24:55.555Z,16.34
2018-09-30T11:25:55.315Z,16.4
2018-09-30T11:26:55.693Z,16.44
2018-09-30T11:27:55.337Z,16.49
2018-09-30T11:28:55.718Z,16.53
2018-09-30T11:29:55.349Z,16.57
2018-09-30T11:30:55.363Z,16.62
2018-09-30T11:31:56.159Z,16.64
2018-09-30T11:32:55.505Z,16.65
2018-09-30T11:33:57.230Z,16.62
2018-09-30T11:34:55.234Z,16.67
2018-09-30T11:35:55.605Z,16.73
2018-09-30T11:36:55.354Z,16.75
2018-09-30T11:37:55.326Z,16.79
2018-09-30T11:38:55.378Z,16.87
2018-09-30T11:39:55.453Z,16.92
2018-09-30T11:40:55.344Z,16.95
2018-09-30T11:41:58.971Z,16.96
2018-09-30T11:42:55.864Z,16.93
2018-09-30T11:43:55.329Z,16.9
2018-09-30T11:44:55.670Z,17
2018-09-30T11:45:55.301Z,17.01
2018-09-30T11:46:55.528Z,17.07
2018-09-30T11:47:55.295Z,17.09
2018-09-30T11:48:55.396Z,17.13
2018-09-30T11:49:55.336Z,17.14
2018-09-30T11:50:55.513Z,17.13
2018-09-30T11:51:55.264Z,17.14
2018-09-30T11:52:55.273Z,17.15
2018-09-30T11:53:55.433Z,17.19
2018-09-30T11:54:55.293Z,17.22
2018-09-30T11:55:55.326Z,17.21
2018-09-30T11:56:55.422Z,17.27
2018-09-30T11:57:55.316Z,17.32
2018-09-30T11:58:55.273Z,17.36
2018-09-30T11:59:55.351Z,17.41
2018-09-30T12:00:55.247Z,17.42
2018-09-30T12:01:55.599Z,17.42
2018-09-30T12:02:55.261Z,17.47
2018-09-30T12:03:55.274Z,17.46
2018-09-30T12:04:55.300Z,17.47
2018-09-30T12:05:55.420Z,17.46
2018-09-30T12:06:55.741Z,17.49
2018-09-30T12:07:55.310Z,17.5
2018-09-30T12:08:55.235Z,17.36
2018-09-30T12:09:55.250Z,17.32
2018-09-30T12:10:55.263Z,17.34
2018-09-30T12:11:55.242Z,17.35
2018-09-30T12:12:55.409Z,17.4
2018-09-30T12:14:43.264Z,17.5
2018-09-30T12:15:43.376Z,17.52
2018-09-30T12:16:43.217Z,17.58
2018-09-30T12:17:43.259Z,17.56
2018-09-30T12:18:43.956Z,17.55
2018-09-30T12:19:43.439Z,17.59
2018-09-30T12:20:43.186Z,17.58
2018-09-30T12:21:43.307Z,17.58
2018-09-30T12:22:43.257Z,17.58
2018-09-30T12:23:43.311Z,17.59
2018-09-30T12:24:43.298Z,17.56
2018-09-30T12:25:43.548Z,17.6
2018-09-30T12:26:43.164Z,17.59
2018-09-30T12:27:43.305Z,17.56
2018-09-30T12:28:43.198Z,17.6
2018-09-30T12:29:43.192Z,17.61
2018-09-30T12:30:43.298Z,17.61
2018-09-30T12:31:43.215Z,17.61
2018-09-30T12:32:43.191Z,17.62
2018-09-30T12:33:43.278Z,17.65
2018-09-30T12:34:43.426Z,17.63
2018-09-30T12:35:43.227Z,17.7
2018-09-30T12:36:43.455Z,17.65
2018-09-30T12:37:43.236Z,17.62
2018-09-30T12:38:43.569Z,17.66
2018-09-30T12:39:43.286Z,17.66
2018-09-30T12:40:43.245Z,17.68
2018-09-30T12:41:43.141Z,17.7
2018-09-30T12:42:43.320Z,17.73
2018-09-30T12:43:43.286Z,17.77
2018-09-30T12:44:43.406Z,17.81
2018-09-30T12:45:43.213Z,17.82
2018-09-30T12:46:43.268Z,17.87
2018-09-30T12:47:43.291Z,17.87
2018-09-30T12:48:43.213Z,17.93
2018-09-30T12:49:43.217Z,17.99
2018-09-30T12:50:43.296Z,18.03
2018-09-30T12:51:43.119Z,18.03
2018-09-30T12:52:43.280Z,18.02
2018-09-30T12:53:43.314Z,18.05
2018-09-30T12:54:43.148Z,18.05
2018-09-30T12:55:43.224Z,18.07
2018-09-30T12:56:43.155Z,18.08
2018-09-30T12:57:43.216Z,18.08
2018-09-30T12:58:43.234Z,18.07
2018-09-30T12:59:43.210Z,18.07
2018-09-30T13:00:43.249Z,18.1
2018-09-30T13:01:43.275Z,18.11
2018-09-30T13:02:43.228Z,18.09
2018-09-30T13:03:43.654Z,18.12
2018-09-30T13:04:43.460Z,18.08
2018-09-30T13:05:44.192Z,18.08